createdAt,value
2022-09-30T00:00:49.174Z,35.31
2022-09-30T00:01:49.291Z,35.2
2022-09-30T00:02:49.272Z,35.19
2022-09-30T00:03:49.191Z,35.02
2022-09-30T00:04:49.203Z,35.07
2022-09-30T00:05:49.194Z,35.15
2022-09-30T00:06:49.197Z,34.9
2022-09-30T00:07:49.271Z,34.88
2022-09-30T00:08:49.184Z,34.85
2022-09-30T00:09:49.207Z,34.87
2022-09-30T00:10:49.199Z,34.89
2022-09-30T00:11:49.184Z,35.08
2022-09-30T00:12:49.196Z,34.73
2022-09-30T00:13:49.281Z,34.73
2022-09-30T00:14:49.212Z,34.63
2022-09-30T00:15:49.279Z,34.89
2022-09-30T00:16:49.202Z,35.05
2022-09-30T00:17:49.198Z,34.79
2022-09-30T00:18:49.198Z,34.74
2022-09-30T00:19:49.204Z,34.73
2022-09-30T00:20:49.189Z,35.12
2022-09-30T00:21:49.204Z,35.04
2022-09-30T00:22:49.200Z,35.01
2022-09-30T00:23:49.204Z,35.02
2022-09-30T00:24:49.212Z,35.03
2022-09-30T00:25:49.192Z,34.91
2022-09-30T00:26:49.204Z,35
2022-09-30T00:27:49.195Z,34.81
2022-09-30T00:28:49.212Z,34.71
2022-09-30T00:29:49.196Z,34.71
2022-09-30T00:30:49.176Z,34.72
2022-09-30T00:31:49.215Z,34.68
2022-09-30T00:32:49.179Z,34.39
2022-09-30T00:33:49.176Z,34.46
2022-09-30T00:34:49.198Z,34.28
2022-09-30T00:35:49.181Z,33.98
2022-09-30T00:36:49.178Z,33.86
2022-09-30T00:37:49.174Z,33.85
2022-09-30T00:38:49.189Z,34.27
2022-09-30T00:39:49.208Z,34.32
2022-09-30T00:40:49.178Z,33.83
2022-09-30T00:41:49.172Z,34.28
2022-09-30T00:42:49.178Z,34.09
2022-09-30T00:43:49.208Z,34.28
2022-09-30T00:44:49.289Z,33.92
2022-09-30T00:45:49.191Z,33.8
2022-09-30T00:46:49.271Z,33.52
2022-09-30T00:47:49.194Z,33.6
2022-09-30T00:48:49.186Z,33.3
2022-09-30T00:49:49.209Z,33.47
2022-09-30T00:50:49.193Z,33.79
2022-09-30T00:51:49.203Z,33.31
2022-09-30T00:52:49.200Z,33.16
2022-09-30T00:53:49.186Z,33.61
2022-09-30T00:54:49.208Z,33.3
2022-09-30T00:55:49.197Z,33.27
2022-09-30T00:56:49.209Z,33.27
2022-09-30T00:57:49.206Z,33.14
2022-09-30T00:58:49.207Z,33.25
2022-09-30T00:59:49.204Z,33.25
2022-09-30T01:00:49.217Z,33.25
2022-09-30T01:01:49.267Z,33.35
2022-09-30T01:02:49.193Z,33.72
2022-09-30T01:03:49.212Z,33.95
2022-09-30T01:04:49.203Z,33.95
2022-09-30T01:05:49.198Z,34.75
2022-09-30T01:06:49.195Z,34.99
2022-09-30T01:07:49.291Z,35.84
2022-09-30T01:08:49.197Z,35.28
2022-09-30T01:09:49.263Z,35.65
2022-09-30T01:10:49.207Z,35.28
2022-09-30T01:11:49.204Z,34.31
2022-09-30T01:12:49.188Z,34.43
2022-09-30T01:13:49.220Z,34.4
2022-09-30T01:14:49.208Z,35.47
2022-09-30T01:15:49.218Z,35.51
2022-09-30T01:16:49.191Z,35.62
2022-09-30T01:17:49.190Z,28.09
2022-09-30T01:18:49.194Z,34.8
2022-09-30T01:19:49.206Z,34.64
2022-09-30T01:20:49.205Z,35.51
2022-09-30T01:21:49.191Z,35.31
2022-09-30T01:22:49.190Z,34.77
2022-09-30T01:23:49.201Z,35.01
2022-09-30T01:24:49.217Z,34.66
2022-09-30T01:25:49.192Z,34.39
2022-09-30T01:26:49.193Z,34.43
2022-09-30T01:27:49.193Z,34.38
2022-09-30T01:28:49.208Z,34.44
2022-09-30T01:29:49.209Z,34.41
2022-09-30T01:30:49.173Z,34.41
2022-09-30T01:31:49.306Z,34.92
2022-09-30T01:32:49.197Z,34.82
2022-09-30T01:33:49.197Z,34.65
2022-09-30T01:34:49.214Z,34.58
2022-09-30T01:35:49.194Z,34.56
2022-09-30T01:36:49.200Z,34.31
2022-09-30T01:37:49.189Z,34.05
2022-09-30T01:38:49.188Z,34.43
2022-09-30T01:39:49.194Z,34.43
2022-09-30T01:40:49.186Z,34.16
2022-09-30T01:41:49.177Z,34.28
2022-09-30T01:42:49.175Z,34.38
2022-09-30T01:43:49.363Z,34.37
2022-09-30T01:44:49.193Z,34.19
2022-09-30T01:45:49.184Z,33.94
2022-09-30T01:46:49.267Z,34
2022-09-30T01:47:49.172Z,33.63
2022-09-30T01:48:49.185Z,33.78
2022-09-30T01:49:49.192Z,33.59
2022-09-30T01:50:49.180Z,33.52
2022-09-30T01:51:49.178Z,33.81
2022-09-30T01:52:49.177Z,33.82
2022-09-30T01:53:49.184Z,34.05
2022-09-30T01:54:49.203Z,33.96
2022-09-30T01:55:49.201Z,33.73
2022-09-30T01:56:49.180Z,33.47
2022-09-30T01:57:49.193Z,33.67
2022-09-30T01:58:49.203Z,33.93
2022-09-30T01:59:49.204Z,33.81
2022-09-30T02:00:49.252Z,33.81
2022-09-30T02:01:49.269Z,33.27
2022-09-30T02:02:49.235Z,33.16
2022-09-30T02:03:49.191Z,33.2
2022-09-30T02:04:49.209Z,33.36
2022-09-30T02:05:49.195Z,33.57
2022-09-30T02:06:49.187Z,33.58
2022-09-30T02:07:49.195Z,33.69
2022-09-30T02:08:49.192Z,33.94
2022-09-30T02:09:49.397Z,33.65
2022-09-30T02:10:49.186Z,33.81
2022-09-30T02:11:49.201Z,33.85
2022-09-30T02:12:49.219Z,33.69
2022-09-30T02:13:49.205Z,33.61
2022-09-30T02:14:49.199Z,33.8
2022-09-30T02:15:49.231Z,33.95
2022-09-30T02:16:49.190Z,33.89
2022-09-30T02:17:49.194Z,33.85
2022-09-30T02:18:49.189Z,33.53
2022-09-30T02:19:49.207Z,33.45
2022-09-30T02:20:49.196Z,33.58
2022-09-30T02:21:49.205Z,33.5
2022-09-30T02:22:49.186Z,33.45
2022-09-30T02:23:49.190Z,33.42
2022-09-30T02:24:49.213Z,33.29
2022-09-30T02:25:49.195Z,33.53
2022-09-30T02:26:49.189Z,33.53
2022-09-30T02:27:49.199Z,33.19
2022-09-30T02:28:49.205Z,33.21
2022-09-30T02:29:49.204Z,33.56
2022-09-30T02:30:49.176Z,33.56
2022-09-30T02:31:49.258Z,33.35
2022-09-30T02:32:49.197Z,33.34
2022-09-30T02:33:49.201Z,33.33
2022-09-30T02:34:49.208Z,33.44
2022-09-30T02:35:49.191Z,33.56
2022-09-30T02:36:49.198Z,33.52
2022-09-30T02:37:49.192Z,33.64
2022-09-30T02:38:49.193Z,33.52
2022-09-30T02:39:49.201Z,33.73
2022-09-30T02:40:49.192Z,33.61
2022-09-30T02:41:49.193Z,33.38
2022-09-30T02:42:49.192Z,33.39
2022-09-30T02:43:49.356Z,33.39
2022-09-30T02:44:49.202Z,33.5
2022-09-30T02:45:49.197Z,33.42
2022-09-30T02:46:49.283Z,33.18
2022-09-30T02:47:49.181Z,33.07
2022-09-30T02:48:49.188Z,33.07
2022-09-30T02:49:49.189Z,33.45
2022-09-30T02:50:49.195Z,33.37
2022-09-30T02:51:49.172Z,33.06
2022-09-30T02:52:49.172Z,33.35
2022-09-30T02:53:49.183Z,33.14
2022-09-30T02:54:49.188Z,33.26
2022-09-30T02:55:49.178Z,33.54
2022-09-30T02:56:49.176Z,32.96
2022-09-30T02:57:49.174Z,32.7
2022-09-30T02:58:49.188Z,32.75
2022-09-30T02:59:49.197Z,32.84
2022-09-30T03:00:49.232Z,32.84
2022-09-30T03:01:49.276Z,32.97
2022-09-30T03:02:49.188Z,33.15
2022-09-30T03:03:49.176Z,33.25
2022-09-30T03:04:49.203Z,33.05
2022-09-30T03:05:49.201Z,33.17
2022-09-30T03:06:49.186Z,33.14
2022-09-30T03:07:49.187Z,33.34
2022-09-30T03:08:49.252Z,33.32
2022-09-30T03:09:49.258Z,33.03
2022-09-30T03:10:49.194Z,33.02
2022-09-30T03:11:49.189Z,32.98
2022-09-30T03:12:49.197Z,33.05
2022-09-30T03:13:49.212Z,33.1
2022-09-30T03:14:49.203Z,32.93
2022-09-30T03:15:49.196Z,32.74
2022-09-30T03:16:49.198Z,32.8
2022-09-30T03:17:49.201Z,33.06
2022-09-30T03:18:49.198Z,33.43
2022-09-30T03:19:49.203Z,33.12
2022-09-30T03:20:49.189Z,33.08
2022-09-30T03:21:49.197Z,33.1
2022-09-30T03:22:49.197Z,33.34
2022-09-30T03:23:49.200Z,33.34
2022-09-30T03:24:49.213Z,33.01
2022-09-30T03:25:49.193Z,33.16
2022-09-30T03:26:49.189Z,33.03
2022-09-30T03:27:49.191Z,33.35
2022-09-30T03:28:49.213Z,33.13
2022-09-30T03:29:49.205Z,33.06
2022-09-30T03:30:49.178Z,33.06
2022-09-30T03:31:49.253Z,33.35
2022-09-30T03:32:49.193Z,33.23
2022-09-30T03:33:49.190Z,33.12
2022-09-30T03:34:49.206Z,33.29
2022-09-30T03:35:49.197Z,33.02
2022-09-30T03:36:49.201Z,33.34
2022-09-30T03:37:49.186Z,33.44
2022-09-30T03:38:49.191Z,33.55
2022-09-30T03:39:49.203Z,33.52
2022-09-30T03:40:49.210Z,33.52
2022-09-30T03:41:49.189Z,33.46
2022-09-30T03:42:49.183Z,33.65
2022-09-30T03:43:49.262Z,33.74
2022-09-30T03:44:49.210Z,33.41
2022-09-30T03:45:49.181Z,33.31
2022-09-30T03:46:49.272Z,33.19
2022-09-30T03:47:49.199Z,33.28
2022-09-30T03:48:49.191Z,33.4
2022-09-30T03:49:49.202Z,33.31
2022-09-30T03:50:49.190Z,33.18
2022-09-30T03:51:51.076Z,33.27
2022-09-30T03:52:49.188Z,33.27
2022-09-30T03:53:49.188Z,33.42
2022-09-30T03:54:49.206Z,33.29
2022-09-30T03:55:49.194Z,33.34
2022-09-30T03:56:49.187Z,33.34
2022-09-30T03:57:49.192Z,33.4
2022-09-30T03:58:49.189Z,33.19
2022-09-30T03:59:49.204Z,33.08
2022-09-30T04:00:49.252Z,33.21
2022-09-30T04:01:49.339Z,33.18
2022-09-30T04:02:49.179Z,33.37
2022-09-30T04:03:49.177Z,33.22
2022-09-30T04:04:49.187Z,33.39
2022-09-30T04:05:49.181Z,33.39
2022-09-30T04:06:49.175Z,33.1
2022-09-30T04:07:49.171Z,33.25
2022-09-30T04:08:49.181Z,32.99
2022-09-30T04:09:49.222Z,33.15
2022-09-30T04:10:49.183Z,32.98
2022-09-30T04:11:49.173Z,33.01
2022-09-30T04:12:49.176Z,33.11
2022-09-30T04:13:49.200Z,33.25
2022-09-30T04:14:49.194Z,33.23
2022-09-30T04:15:49.173Z,33.42
2022-09-30T04:16:53.218Z,33.42
2022-09-30T04:17:49.182Z,33.04
2022-09-30T04:18:49.188Z,33
2022-09-30T04:19:49.204Z,33.05
2022-09-30T04:20:49.189Z,32.94
2022-09-30T04:21:49.185Z,32.89
2022-09-30T04:22:49.184Z,33.02
2022-09-30T04:23:49.189Z,33.06
2022-09-30T04:24:49.206Z,32.79
2022-09-30T04:25:49.193Z,33.03
2022-09-30T04:26:49.191Z,32.88
2022-09-30T04:27:49.192Z,33.07
2022-09-30T04:28:49.191Z,33.1
2022-09-30T04:29:49.210Z,33.1
2022-09-30T04:30:49.204Z,32.85
2022-09-30T04:31:49.251Z,32.83
2022-09-30T04:32:49.198Z,32.71
2022-09-30T04:33:49.195Z,32.85
2022-09-30T04:34:49.213Z,32.72
2022-09-30T04:35:49.191Z,32.72
2022-09-30T04:36:49.188Z,32.85
2022-09-30T04:37:49.180Z,32.81
2022-09-30T04:38:49.197Z,32.68
2022-09-30T04:39:49.200Z,33.13
2022-09-30T04:40:49.187Z,33.36
2022-09-30T04:41:49.182Z,33.24
2022-09-30T04:42:49.195Z,33.29
2022-09-30T04:43:49.204Z,33.18
2022-09-30T04:44:49.199Z,33.17
2022-09-30T04:45:49.261Z,33.32
2022-09-30T04:46:49.194Z,33.26
2022-09-30T04:47:49.196Z,33.33
2022-09-30T04:48:49.188Z,33.38
2022-09-30T04:49:49.215Z,33.47
2022-09-30T04:50:49.188Z,33.58
2022-09-30T04:51:49.189Z,33.76
2022-09-30T04:52:49.192Z,33.94
2022-09-30T04:53:49.196Z,34.16
2022-09-30T04:54:49.204Z,34.2
2022-09-30T04:55:49.190Z,33.9
2022-09-30T04:56:49.190Z,34.13
2022-09-30T04:57:49.189Z,33.96
2022-09-30T04:58:49.203Z,34.29
2022-09-30T04:59:49.225Z,33.99
2022-09-30T05:00:49.281Z,33.63
2022-09-30T05:01:49.285Z,26.45
2022-09-30T05:02:49.194Z,34.28
2022-09-30T05:03:49.194Z,33.84
2022-09-30T05:04:49.222Z,33.44
2022-09-30T05:05:49.194Z,33.43
2022-09-30T05:06:49.188Z,33.43
2022-09-30T05:07:49.218Z,33.44
2022-09-30T05:08:49.193Z,33.33
2022-09-30T05:09:49.205Z,33.38
2022-09-30T05:10:49.188Z,33.46
2022-09-30T05:11:49.195Z,33.44
2022-09-30T05:12:49.192Z,33.81
2022-09-30T05:13:49.217Z,33.52
2022-09-30T05:14:49.200Z,33.52
2022-09-30T05:15:49.208Z,33.54
2022-09-30T05:16:49.183Z,33.54
2022-09-30T05:17:49.176Z,33.62
2022-09-30T05:18:49.172Z,33.76
2022-09-30T05:19:49.207Z,33.52
2022-09-30T05:20:49.177Z,33.47
2022-09-30T05:21:49.173Z,33.53
2022-09-30T05:22:49.179Z,33.77
2022-09-30T05:23:49.208Z,33.55
2022-09-30T05:24:49.190Z,33.49
2022-09-30T05:25:49.172Z,33.61
2022-09-30T05:26:49.172Z,33.54
2022-09-30T05:27:49.176Z,33.47
2022-09-30T05:28:49.212Z,33.11
2022-09-30T05:29:49.188Z,33.31
2022-09-30T05:30:49.181Z,33.34
2022-09-30T05:31:49.232Z,33.12
2022-09-30T05:32:49.192Z,33.09
2022-09-30T05:33:49.195Z,32.92
2022-09-30T05:34:49.195Z,32.87
2022-09-30T05:35:49.200Z,32.79
2022-09-30T05:36:49.186Z,32.75
2022-09-30T05:37:49.188Z,32.77
2022-09-30T05:38:49.238Z,32.84
2022-09-30T05:39:49.210Z,32.91
2022-09-30T05:40:49.192Z,32.95
2022-09-30T05:41:49.190Z,33.02
2022-09-30T05:42:49.187Z,33.15
2022-09-30T05:43:49.207Z,33.22
2022-09-30T05:44:49.304Z,32.97
2022-09-30T05:45:49.185Z,33.19
2022-09-30T05:46:49.239Z,33.31
2022-09-30T05:47:49.192Z,32.97
2022-09-30T05:48:49.197Z,32.89
2022-09-30T05:49:51.144Z,32.96
2022-09-30T05:50:49.188Z,32.97
2022-09-30T05:51:49.186Z,32.9
2022-09-30T05:52:49.176Z,32.48
2022-09-30T05:53:49.194Z,32.37
2022-09-30T05:54:49.235Z,32.36
2022-09-30T05:55:49.191Z,32.53
2022-09-30T05:56:49.189Z,32.59
2022-09-30T05:57:49.192Z,32.69
2022-09-30T05:58:49.323Z,32.79
2022-09-30T05:59:49.207Z,32.6
2022-09-30T06:00:49.197Z,32.7
2022-09-30T06:01:49.301Z,32.68
2022-09-30T06:02:49.331Z,32.31
2022-09-30T06:03:49.185Z,32.57
2022-09-30T06:04:49.208Z,32.4
2022-09-30T06:05:49.191Z,32.53
2022-09-30T06:06:49.192Z,32.14
2022-09-30T06:07:49.722Z,31.89
2022-09-30T06:08:49.187Z,31.83
2022-09-30T06:09:49.305Z,32.11
2022-09-30T06:10:49.202Z,32.04
2022-09-30T06:11:49.200Z,32.29
2022-09-30T06:12:49.181Z,32.52
2022-09-30T06:13:49.211Z,32.08
2022-09-30T06:14:49.188Z,32.08
2022-09-30T06:15:49.206Z,31.94
2022-09-30T06:16:49.205Z,31.69
2022-09-30T06:17:49.195Z,31.61
2022-09-30T06:18:49.185Z,31.67
2022-09-30T06:19:49.205Z,31.49
2022-09-30T06:20:49.209Z,31.84
2022-09-30T06:21:49.191Z,31.58
2022-09-30T06:22:49.194Z,31.34
2022-09-30T06:23:49.181Z,31.34
2022-09-30T06:24:52.809Z,31.35
2022-09-30T06:25:49.183Z,31.33
2022-09-30T06:26:49.185Z,31.15
2022-09-30T06:27:49.176Z,30.94
2022-09-30T06:28:49.198Z,31.05
2022-09-30T06:29:49.190Z,31
2022-09-30T06:30:49.183Z,31.12
2022-09-30T06:31:49.202Z,30.93
2022-09-30T06:32:49.182Z,31
2022-09-30T06:33:49.178Z,30.73
2022-09-30T06:34:49.199Z,31.14
2022-09-30T06:35:49.178Z,30.73
2022-09-30T06:36:49.170Z,30.7
2022-09-30T06:37:49.186Z,30.68
2022-09-30T06:38:49.188Z,30.89
2022-09-30T06:39:49.205Z,30.99
2022-09-30T06:40:49.182Z,31.16
2022-09-30T06:41:49.186Z,30.73
2022-09-30T06:42:49.180Z,30.97
2022-09-30T06:43:49.285Z,30.85
2022-09-30T06:44:53.156Z,30.71
2022-09-30T06:45:49.245Z,30.58
2022-09-30T06:46:53.846Z,30.48
2022-09-30T06:47:59.088Z,30.4
2022-09-30T06:48:49.208Z,30.73
2022-09-30T06:49:50.152Z,30.47
2022-09-30T06:50:59.809Z,30.17
2022-09-30T06:51:49.203Z,30.13
2022-09-30T06:52:49.193Z,29.92
2022-09-30T06:53:53.207Z,29.96
2022-09-30T06:54:49.212Z,30.79
2022-09-30T06:55:49.196Z,31.04
2022-09-30T06:56:49.194Z,31.04
2022-09-30T06:57:49.183Z,30.37
2022-09-30T06:58:49.205Z,30.87
2022-09-30T06:59:49.211Z,30.74
2022-09-30T07:00:49.234Z,30.38
2022-09-30T07:01:49.246Z,30.09
2022-09-30T07:02:49.195Z,30.16
2022-09-30T07:03:53.961Z,30.16
2022-09-30T07:04:49.207Z,29.91
2022-09-30T07:05:49.195Z,30.5
2022-09-30T07:06:49.191Z,30.94
2022-09-30T07:07:49.211Z,30.73
2022-09-30T07:08:49.194Z,29.91
2022-09-30T07:09:49.260Z,30.31
2022-09-30T07:10:49.189Z,29.96
2022-09-30T07:11:49.196Z,30.28
2022-09-30T07:12:49.189Z,29.79
2022-09-30T07:13:49.284Z,29.2
2022-09-30T07:14:49.199Z,29.36
2022-09-30T07:15:49.186Z,29.36
2022-09-30T07:16:49.246Z,29.38
2022-09-30T07:17:49.191Z,29.61
2022-09-30T07:18:49.200Z,29.33
2022-09-30T07:19:49.198Z,29.12
2022-09-30T07:20:49.188Z,29.1
2022-09-30T07:21:49.188Z,29.08
2022-09-30T07:22:49.197Z,28.87
2022-09-30T07:23:49.264Z,28.7
2022-09-30T07:24:49.239Z,28.54
2022-09-30T07:25:49.183Z,28.41
2022-09-30T07:26:49.186Z,28.19
2022-09-30T07:27:49.188Z,28.14
2022-09-30T07:28:49.211Z,28.36
2022-09-30T07:30:49.221Z,28.27
2022-09-30T07:31:49.227Z,28.27
2022-09-30T07:32:49.309Z,28.19
2022-09-30T07:33:49.197Z,28.38
2022-09-30T07:34:49.202Z,28.6
2022-09-30T07:35:49.205Z,28.86
2022-09-30T07:36:49.194Z,28.63
2022-09-30T07:37:49.245Z,28.63
2022-09-30T07:38:49.176Z,28.39
2022-09-30T07:39:49.199Z,28.59
2022-09-30T07:40:49.172Z,28.43
2022-09-30T07:41:49.171Z,28.44
2022-09-30T07:42:49.180Z,28.38
2022-09-30T07:43:49.193Z,28.18
2022-09-30T07:44:49.192Z,28.18
2022-09-30T07:45:49.270Z,28.16
2022-09-30T07:46:49.185Z,28.03
2022-09-30T07:47:53.485Z,27.93
2022-09-30T07:48:49.177Z,27.56
2022-09-30T07:49:49.190Z,28.17
2022-09-30T07:50:49.192Z,28.17
2022-09-30T07:51:49.176Z,27.8
2022-09-30T07:52:49.176Z,27.68
2022-09-30T07:53:49.179Z,27.58
2022-09-30T07:54:50.683Z,27.26
2022-09-30T07:55:49.179Z,26.9
2022-09-30T07:57:09.113Z,27.25
2022-09-30T07:57:49.184Z,26.83
2022-09-30T07:58:49.198Z,26.75
2022-09-30T07:59:49.196Z,26.86
2022-09-30T08:00:49.261Z,26.84
2022-09-30T08:01:49.236Z,26.8
2022-09-30T08:02:49.198Z,26.79
2022-09-30T08:03:49.196Z,26.63
2022-09-30T08:04:49.219Z,26.51
2022-09-30T08:05:49.179Z,26.62
2022-09-30T08:06:49.191Z,26.56
2022-09-30T08:07:49.198Z,26.52
2022-09-30T08:08:49.199Z,26.55
2022-09-30T08:09:49.404Z,26.54
2022-09-30T08:10:49.199Z,26.81
2022-09-30T08:11:49.188Z,26.61
2022-09-30T08:12:49.190Z,26.5
2022-09-30T08:13:49.211Z,26.28
2022-09-30T08:14:49.204Z,26.19
2022-09-30T08:15:49.187Z,25.92
2022-09-30T08:16:49.252Z,25.78
2022-09-30T08:17:49.188Z,25.73
2022-09-30T08:18:49.204Z,25.75
2022-09-30T08:19:49.206Z,25.74
2022-09-30T08:20:49.206Z,25.88
2022-09-30T08:21:49.391Z,26.18
2022-09-30T08:22:49.205Z,26.32
2022-09-30T08:23:49.190Z,26.96
2022-09-30T08:24:49.210Z,27.79
2022-09-30T08:25:49.202Z,27.2
2022-09-30T08:26:49.264Z,27.02
2022-09-30T08:27:49.191Z,26.76
2022-09-30T08:28:49.202Z,26.14
2022-09-30T08:29:55.149Z,25.98
2022-09-30T08:30:49.192Z,25.89
2022-09-30T08:31:49.209Z,25.71
2022-09-30T08:32:49.191Z,25.7
2022-09-30T08:33:49.263Z,25.61
2022-09-30T08:34:49.207Z,25.63
2022-09-30T08:35:49.200Z,25.69
2022-09-30T08:36:49.202Z,26.07
2022-09-30T08:37:49.193Z,26.23
2022-09-30T08:38:49.189Z,26.29
2022-09-30T08:39:49.209Z,26.38
2022-09-30T08:40:49.208Z,26.4
2022-09-30T08:41:49.195Z,26.46
2022-09-30T08:42:52.907Z,26.91
2022-09-30T08:43:49.212Z,27.2
2022-09-30T08:44:49.206Z,26.71
2022-09-30T08:45:49.248Z,26.49
2022-09-30T08:46:49.206Z,26.9
2022-09-30T08:47:49.199Z,26.62
2022-09-30T08:48:49.195Z,26.47
2022-09-30T08:49:49.285Z,26.53
2022-09-30T08:50:49.183Z,26.53
2022-09-30T08:51:49.198Z,26.49
2022-09-30T08:52:49.579Z,26.49
2022-09-30T08:53:49.184Z,26.55
2022-09-30T08:54:49.187Z,26.48
2022-09-30T08:55:49.175Z,26.45
2022-09-30T08:56:49.178Z,26.38
2022-09-30T08:57:49.186Z,26.25
2022-09-30T08:58:49.195Z,26.19
2022-09-30T08:59:49.195Z,26.27
2022-09-30T09:00:49.224Z,26.33
2022-09-30T09:01:49.251Z,26.1
2022-09-30T09:02:49.270Z,26.2
2022-09-30T09:03:49.187Z,26.12
2022-09-30T09:04:49.200Z,26.38
2022-09-30T09:05:52.341Z,26.51
2022-09-30T09:06:49.179Z,26.43
2022-09-30T09:07:49.172Z,26.47
2022-09-30T09:08:49.181Z,26.58
2022-09-30T09:09:49.213Z,27.87
2022-09-30T09:10:49.204Z,27.48
2022-09-30T09:11:49.208Z,27.9
2022-09-30T09:12:49.203Z,27.53
2022-09-30T09:13:49.207Z,27.6
2022-09-30T09:14:49.201Z,27.65
2022-09-30T09:15:49.187Z,27.88
2022-09-30T09:16:49.258Z,27.74
2022-09-30T09:18:04.579Z,27.84
2022-09-30T09:18:49.189Z,27.72
2022-09-30T09:19:49.201Z,27.41
2022-09-30T09:20:49.188Z,27.43
2022-09-30T09:21:49.187Z,27.14
2022-09-30T09:22:49.193Z,27.31
2022-09-30T09:23:49.206Z,27.33
2022-09-30T09:24:49.214Z,27.18
2022-09-30T09:25:49.187Z,27.22
2022-09-30T09:26:49.231Z,27.29
2022-09-30T09:27:49.251Z,27.41
2022-09-30T09:28:51.719Z,27.25
2022-09-30T09:29:49.235Z,27.07
2022-09-30T09:30:49.195Z,27.04
2022-09-30T09:31:49.281Z,27
2022-09-30T09:32:49.191Z,26.88
2022-09-30T09:33:49.200Z,26.9
2022-09-30T09:34:49.210Z,26.78
2022-09-30T09:35:49.216Z,26.81
2022-09-30T09:36:49.214Z,26.81
2022-09-30T09:37:49.248Z,27.33
2022-09-30T09:38:49.192Z,27.41
2022-09-30T09:39:49.307Z,27.43
2022-09-30T09:40:49.200Z,27.75
2022-09-30T09:41:49.189Z,27.73
2022-09-30T09:42:49.289Z,27.65
2022-09-30T09:43:49.209Z,27.6
2022-09-30T09:44:49.208Z,27.55
2022-09-30T09:45:49.274Z,27.67
2022-09-30T09:46:49.197Z,27.65
2022-09-30T09:47:49.198Z,27.51
2022-09-30T09:48:49.193Z,27.47
2022-09-30T09:49:51.681Z,27.49
2022-09-30T09:50:49.187Z,27.46
2022-09-30T09:51:49.181Z,27.54
2022-09-30T09:52:49.179Z,27.54
2022-09-30T09:53:49.199Z,27.77
2022-09-30T09:54:49.224Z,27.9
2022-09-30T09:55:49.205Z,28
2022-09-30T09:56:49.204Z,27.87
2022-09-30T09:57:49.198Z,27.77
2022-09-30T09:59:49.274Z,27.56
2022-09-30T10:00:49.274Z,27.56
2022-09-30T10:01:49.279Z,27.57
2022-09-30T10:02:49.200Z,27.77
2022-09-30T10:03:49.191Z,27.47
2022-09-30T10:04:49.200Z,27.47
2022-09-30T10:05:49.185Z,27.47
2022-09-30T10:06:49.173Z,27.58
2022-09-30T10:07:49.179Z,27.49
2022-09-30T10:08:49.176Z,27.47
2022-09-30T10:09:49.186Z,27.36
2022-09-30T10:10:49.184Z,27.34
2022-09-30T10:11:49.172Z,27.59
2022-09-30T10:12:49.180Z,27.59
2022-09-30T10:13:49.200Z,27.55
2022-09-30T10:14:49.196Z,27.51
2022-09-30T10:15:49.229Z,27.85
2022-09-30T10:16:49.175Z,27.95
2022-09-30T10:17:49.269Z,27.73
2022-09-30T10:18:49.185Z,28.24
2022-09-30T10:19:49.191Z,27.99
2022-09-30T10:20:49.211Z,27.87
2022-09-30T10:21:51.834Z,28.05
2022-09-30T10:22:49.173Z,27.97
2022-09-30T10:23:49.207Z,27.96
2022-09-30T10:24:49.205Z,27.84
2022-09-30T10:25:49.187Z,27.71
2022-09-30T10:26:49.476Z,28.01
2022-09-30T10:27:49.274Z,27.96
2022-09-30T10:28:49.209Z,27.78
2022-09-30T10:29:49.199Z,27.82
2022-09-30T10:30:49.189Z,27.76
2022-09-30T10:31:49.259Z,27.88
2022-09-30T10:32:49.194Z,27.95
2022-09-30T10:33:49.191Z,27.96
2022-09-30T10:34:49.212Z,27.72
2022-09-30T10:35:49.194Z,27.76
2022-09-30T10:36:49.187Z,27.58
2022-09-30T10:37:51.479Z,27.54
2022-09-30T10:38:49.199Z,27.56
2022-09-30T10:39:49.210Z,27.46
2022-09-30T10:40:49.188Z,27.53
2022-09-30T10:41:49.194Z,27.41
2022-09-30T10:42:49.189Z,27.51
2022-09-30T10:43:49.207Z,27.43
2022-09-30T10:44:49.200Z,27.4
2022-09-30T10:46:01.510Z,27.39
2022-09-30T10:46:49.233Z,27.28
2022-09-30T10:47:49.208Z,27.19
2022-09-30T10:48:49.194Z,27.19
2022-09-30T10:49:49.205Z,27.82
2022-09-30T10:50:49.194Z,28.15
2022-09-30T10:51:49.188Z,27.87
2022-09-30T10:52:49.200Z,28.09
2022-09-30T10:53:49.191Z,28.05
2022-09-30T10:54:49.203Z,28.02
2022-09-30T10:55:49.190Z,27.99
2022-09-30T10:56:49.197Z,27.81
2022-09-30T10:57:49.194Z,27.57
2022-09-30T10:58:49.271Z,27.61
2022-09-30T10:59:49.213Z,27.94
2022-09-30T11:00:49.273Z,27.9
2022-09-30T11:01:51.451Z,27.67
2022-09-30T11:02:51.791Z,27.67
2022-09-30T11:03:49.275Z,27.59
2022-09-30T11:04:49.206Z,27.48
2022-09-30T11:05:49.193Z,27.43
2022-09-30T11:06:49.194Z,27.47
2022-09-30T11:07:49.197Z,27.4
2022-09-30T11:08:49.184Z,27.45
2022-09-30T11:09:49.283Z,27.42
2022-09-30T11:10:49.196Z,27.49
2022-09-30T11:11:49.189Z,27.4
2022-09-30T11:12:49.191Z,27.25
2022-09-30T11:13:49.207Z,27.19
2022-09-30T11:14:49.207Z,27.12
2022-09-30T11:15:49.194Z,27.08
2022-09-30T11:16:49.244Z,27.21
2022-09-30T11:17:49.171Z,27.21
2022-09-30T11:18:49.194Z,27.13
2022-09-30T11:19:49.190Z,27.13
2022-09-30T11:20:49.172Z,27.18
2022-09-30T11:21:49.192Z,27.24
2022-09-30T11:22:49.177Z,27.39
2022-09-30T11:23:49.172Z,27.38
2022-09-30T11:24:49.194Z,27.39
2022-09-30T11:25:49.175Z,27.44
2022-09-30T11:26:49.174Z,27.43
2022-09-30T11:27:49.200Z,27.43
2022-09-30T11:28:49.201Z,27.29
2022-09-30T11:29:49.203Z,27.35
2022-09-30T11:30:49.173Z,27.6
2022-09-30T11:31:49.294Z,27.67
2022-09-30T11:32:49.178Z,27.73
2022-09-30T11:33:49.196Z,27.58
2022-09-30T11:34:49.220Z,27.43
2022-09-30T11:35:49.196Z,27.31
2022-09-30T11:36:49.186Z,27.43
2022-09-30T11:37:49.196Z,27.58
2022-09-30T11:38:49.199Z,27.51
2022-09-30T11:39:49.205Z,27.54
2022-09-30T11:40:49.196Z,27.58
2022-09-30T11:41:49.187Z,27.72
2022-09-30T11:42:49.192Z,27.59
2022-09-30T11:43:49.219Z,27.43
2022-09-30T11:44:49.203Z,27.28
2022-09-30T11:45:49.219Z,27.17
2022-09-30T11:46:49.192Z,27
2022-09-30T11:47:49.200Z,26.93
2022-09-30T11:48:49.206Z,27.18
2022-09-30T11:49:49.214Z,27.55
2022-09-30T11:50:49.192Z,27.5
2022-09-30T11:51:49.205Z,27.34
2022-09-30T11:52:49.186Z,27.2
2022-09-30T11:53:49.196Z,27.2
2022-09-30T11:54:49.200Z,27.03
2022-09-30T11:55:49.185Z,27.03
2022-09-30T11:56:49.190Z,27.03
2022-09-30T11:57:49.191Z,27.08
2022-09-30T11:58:49.202Z,27.02
2022-09-30T11:59:49.206Z,27.03
2022-09-30T12:00:49.171Z,27.03
2022-09-30T12:01:49.218Z,26.81
2022-09-30T12:02:49.239Z,26.93
2022-09-30T12:03:49.189Z,27.04
2022-09-30T12:04:49.214Z,26.85
2022-09-30T12:05:49.189Z,26.85
2022-09-30T12:06:49.179Z,27.07
2022-09-30T12:07:49.212Z,27.12
2022-09-30T12:08:49.189Z,27.17
2022-09-30T12:09:49.206Z,27.1
2022-09-30T12:10:49.178Z,27.1
2022-09-30T12:11:49.188Z,26.93
2022-09-30T12:12:49.197Z,26.9
2022-09-30T12:13:49.207Z,26.89
2022-09-30T12:14:49.194Z,26.94
2022-09-30T12:15:49.193Z,27.07
2022-09-30T12:16:49.281Z,26.91
2022-09-30T12:17:49.188Z,26.79
2022-09-30T12:18:49.197Z,26.83
2022-09-30T12:19:49.202Z,26.9
2022-09-30T12:20:49.177Z,26.9
2022-09-30T12:21:49.192Z,26.86
2022-09-30T12:22:49.190Z,26.76
2022-09-30T12:23:49.195Z,26.9
2022-09-30T12:24:49.214Z,26.89
2022-09-30T12:25:49.188Z,26.94
2022-09-30T12:26:49.199Z,26.94
2022-09-30T12:27:49.248Z,27.14
2022-09-30T12:28:49.189Z,27.07
2022-09-30T12:29:49.192Z,26.98
2022-09-30T12:30:49.179Z,26.92
2022-09-30T12:31:49.209Z,27
2022-09-30T12:32:49.180Z,27.02
2022-09-30T12:33:49.171Z,27.06
2022-09-30T12:34:49.189Z,27.03
2022-09-30T12:35:49.187Z,26.99
2022-09-30T12:36:49.173Z,26.94
2022-09-30T12:37:49.171Z,26.81
2022-09-30T12:38:49.184Z,26.83
2022-09-30T12:39:49.185Z,26.92
2022-09-30T12:40:52.378Z,26.91
2022-09-30T12:41:49.171Z,26.8
2022-09-30T12:42:49.188Z,26.58
2022-09-30T12:43:49.200Z,26.43
2022-09-30T12:44:49.195Z,26.45
2022-09-30T12:45:49.251Z,26.45
2022-09-30T12:46:49.191Z,26.52
2022-09-30T12:47:49.188Z,26.57
2022-09-30T12:48:49.200Z,26.52
2022-09-30T12:49:49.213Z,26.52
2022-09-30T12:50:49.194Z,26.52
2022-09-30T12:51:49.195Z,26.43
2022-09-30T12:52:49.186Z,26.44
2022-09-30T12:53:49.188Z,26.56
2022-09-30T12:54:49.213Z,26.6
2022-09-30T12:55:49.186Z,26.65
2022-09-30T12:56:49.197Z,26.66
2022-09-30T12:57:49.192Z,26.7